sensor_id;sensor_type;location;lat;lon;timestamp;temperature;humidity
54642;DHT22;40536;53.194;5.728;2023-08-01T00:00:04;15.80;99.90
54642;DHT22;40536;53.194;5.728;2023-08-01T00:02:31;15.80;99.90
54642;DHT22;40536;53.194;5.728;2023-08-01T00:04:57;15.70;99.90
54642;DHT22;40536;53.194;5.728;2023-08-01T00:07:22;15.80;99.90
54642;DHT22;40536;53.194;5.728;2023-08-01T00:09:49;15.80;99.90
54642;DHT22;40536;53.194;5.728;2023-08-01T00:12:14;15.80;99.90
54642;DHT22;40536;53.194;5.728;2023-08-01T00:14:40;15.70;99.90
54642;DHT22;40536;53.194;5.728;2023-08-01T00:17:06;15.70;99.90
54642;DHT22;40536;53.194;5.728;2023-08-01T00:19:31;15.70;99.90
54642;DHT22;40536;53.194;5.728;2023-08-01T00:21:57;15.60;99.90
54642;DHT22;40536;53.194;5.728;2023-08-01T00:24:22;15.50;99.90
54642;DHT22;40536;53.194;5.728;2023-08-01T00:26:48;15.50;99.90
54642;DHT22;40536;53.194;5.728;2023-08-01T00:29:14;15.50;99.90
54642;DHT22;40536;53.194;5.728;2023-08-01T00:31:39;15.40;99.90
54642;DHT22;40536;53.194;5.728;2023-08-01T00:34:05;15.40;99.90
54642;DHT22;40536;53.194;5.728;2023-08-01T00:36:31;15.40;99.90
54642;DHT22;40536;53.194;5.728;2023-08-01T00:38:57;15.40;99.90
54642;DHT22;40536;53.194;5.728;2023-08-01T00:41:22;15.30;99.90
54642;DHT22;40536;53.194;5.728;2023-08-01T00:43:48;15.30;99.90
54642;DHT22;40536;53.194;5.728;2023-08-01T00:46:14;15.20;99.90
54642;DHT22;40536;53.194;5.728;2023-08-01T00:48:40;15.20;99.90
54642;DHT22;40536;53.194;5.728;2023-08-01T00:51:07;15.20;99.90
54642;DHT22;40536;53.194;5.728;2023-08-01T00:53:34;15.20;99.90
54642;DHT22;40536;53.194;5.728;2023-08-01T00:56:00;15.10;99.90
54642;DHT22;40536;53.194;5.728;2023-08-01T00:58:26;15.10;99.90
54642;DHT22;40536;53.194;5.728;2023-08-01T01:00:52;15.10;99.90
54642;DHT22;40536;53.194;5.728;2023-08-01T01:03:18;15.10;99.90
54642;DHT22;40536;53.194;5.728;2023-08-01T01:05:52;15.20;99.90
54642;DHT22;40536;53.194;5.728;2023-08-01T01:08:19;15.00;99.90
54642;DHT22;40536;53.194;5.728;2023-08-01T01:10:45;15.00;99.90
54642;DHT22;40536;53.194;5.728;2023-08-01T01:13:10;15.00;99.90
54642;DHT22;40536;53.194;5.728;2023-08-01T01:15:36;15.00;99.90
54642;DHT22;40536;53.194;5.728;2023-08-01T01:18:02;14.90;99.90
54642;DHT22;40536;53.194;5.728;2023-08-01T01:20:33;15.00;99.90
54642;DHT22;40536;53.194;5.728;2023-08-01T01:23:00;14.90;99.90
54642;DHT22;40536;53.194;5.728;2023-08-01T01:25:27;15.00;99.90
54642;DHT22;40536;53.194;5.728;2023-08-01T01:27:53;15.00;99.90
54642;DHT22;40536;53.194;5.728;2023-08-01T01:30:19;14.90;99.90
54642;DHT22;40536;53.194;5.728;2023-08-01T01:32:45;14.90;99.90
54642;DHT22;40536;53.194;5.728;2023-08-01T01:35:11;14.90;99.90
54642;DHT22;40536;53.194;5.728;2023-08-01T01:37:37;14.90;99.90
54642;DHT22;40536;53.194;5.728;2023-08-01T01:40:03;14.90;99.90
54642;DHT22;40536;53.194;5.728;2023-08-01T01:42:29;14.80;99.90
54642;DHT22;40536;53.194;5.728;2023-08-01T01:44:54;14.90;99.90
54642;DHT22;40536;53.194;5.728;2023-08-01T01:47:20;14.90;99.90
54642;DHT22;40536;53.194;5.728;2023-08-01T01:49:45;14.80;99.90
54642;DHT22;40536;53.194;5.728;2023-08-01T01:52:11;14.90;99.90
54642;DHT22;40536;53.194;5.728;2023-08-01T01:54:37;14.90;99.90
54642;DHT22;40536;53.194;5.728;2023-08-01T01:57:02;14.90;99.90
54642;DHT22;40536;53.194;5.728;2023-08-01T01:59:28;14.90;99.90
54642;DHT22;40536;53.194;5.728;2023-08-01T02:01:53;14.90;99.90
54642;DHT22;40536;53.194;5.728;2023-08-01T02:04:20;15.00;99.90
54642;DHT22;40536;53.194;5.728;2023-08-01T02:06:46;15.10;99.90
54642;DHT22;40536;53.194;5.728;2023-08-01T02:09:13;15.00;99.90
54642;DHT22;40536;53.194;5.728;2023-08-01T02:11:38;15.00;99.90
54642;DHT22;40536;53.194;5.728;2023-08-01T02:14:04;15.00;99.90
54642;DHT22;40536;53.194;5.728;2023-08-01T02:16:30;15.00;99.90
54642;DHT22;40536;53.194;5.728;2023-08-01T02:18:56;15.00;99.90
54642;DHT22;40536;53.194;5.728;2023-08-01T02:21:22;14.90;99.90
54642;DHT22;40536;53.194;5.728;2023-08-01T02:23:47;14.90;99.90
54642;DHT22;40536;53.194;5.728;2023-08-01T02:26:13;14.90;99.90
54642;DHT22;40536;53.194;5.728;2023-08-01T02:28:39;14.80;99.90
54642;DHT22;40536;53.194;5.728;2023-08-01T02:31:04;14.80;99.90
54642;DHT22;40536;53.194;5.728;2023-08-01T02:33:30;14.90;99.90
54642;DHT22;40536;53.194;5.728;2023-08-01T02:35:56;14.90;99.90
54642;DHT22;40536;53.194;5.728;2023-08-01T02:38:21;14.80;99.90
54642;DHT22;40536;53.194;5.728;2023-08-01T02:40:47;14.80;99.90
54642;DHT22;40536;53.194;5.728;2023-08-01T02:43:12;14.80;99.90
54642;DHT22;40536;53.194;5.728;2023-08-01T02:45:38;14.80;99.90
54642;DHT22;40536;53.194;5.728;2023-08-01T02:48:04;14.80;99.90
54642;DHT22;40536;53.194;5.728;2023-08-01T02:50:29;14.80;99.90
54642;DHT22;40536;53.194;5.728;2023-08-01T02:52:55;14.70;99.90
54642;DHT22;40536;53.194;5.728;2023-08-01T02:55:21;14.70;99.90
54642;DHT22;40536;53.194;5.728;2023-08-01T02:57:46;14.60;99.90
54642;DHT22;40536;53.194;5.728;2023-08-01T03:00:12;14.70;99.90
54642;DHT22;40536;53.194;5.728;2023-08-01T03:02:38;14.50;99.90
54642;DHT22;40536;53.194;5.728;2023-08-01T03:05:08;14.50;99.90
54642;DHT22;40536;53.194;5.728;2023-08-01T03:07:33;14.50;99.90
54642;DHT22;40536;53.194;5.728;2023-08-01T03:09:59;14.60;99.90
54642;DHT22;40536;53.194;5.728;2023-08-01T03:12:25;14.40;99.90
54642;DHT22;40536;53.194;5.728;2023-08-01T03:14:50;14.40;99.90
54642;DHT22;40536;53.194;5.728;2023-08-01T03:17:16;14.40;99.90
54642;DHT22;40536;53.194;5.728;2023-08-01T03:19:42;14.40;99.90
54642;DHT22;40536;53.194;5.728;2023-08-01T03:22:09;14.50;99.90
54642;DHT22;40536;53.194;5.728;2023-08-01T03:24:35;14.40;99.90
54642;DHT22;40536;53.194;5.728;2023-08-01T03:27:01;14.40;99.90
54642;DHT22;40536;53.194;5.728;2023-08-01T03:29:26;14.40;99.90
54642;DHT22;40536;53.194;5.728;2023-08-01T03:31:52;14.40;99.90
54642;DHT22;40536;53.194;5.728;2023-08-01T03:34:18;14.30;99.90
54642;DHT22;40536;53.194;5.728;2023-08-01T03:36:44;14.40;99.90
54642;DHT22;40536;53.194;5.728;2023-08-01T03:39:09;14.40;99.90
54642;DHT22;40536;53.194;5.728;2023-08-01T03:41:36;14.40;99.90
54642;DHT22;40536;53.194;5.728;2023-08-01T03:44:02;14.40;99.90
54642;DHT22;40536;53.194;5.728;2023-08-01T03:46:28;14.40;99.90
54642;DHT22;40536;53.194;5.728;2023-08-01T03:48:54;14.40;99.90
54642;DHT22;40536;53.194;5.728;2023-08-01T03:51:19;14.40;99.90
54642;DHT22;40536;53.194;5.728;2023-08-01T03:53:46;14.40;99.90
54642;DHT22;40536;53.194;5.728;2023-08-01T03:56:12;14.40;99.90
54642;DHT22;40536;53.194;5.728;2023-08-01T03:58:37;14.40;99.90
54642;DHT22;40536;53.194;5.728;2023-08-01T04:01:03;14.40;99.90
54642;DHT22;40536;53.194;5.728;2023-08-01T04:03:28;14.40;99.90
54642;DHT22;40536;53.194;5.728;2023-08-01T04:05:54;14.50;99.90
54642;DHT22;40536;53.194;5.728;2023-08-01T04:08:20;14.50;99.90
54642;DHT22;40536;53.194;5.728;2023-08-01T04:10:46;14.60;99.90
54642;DHT22;40536;53.194;5.728;2023-08-01T04:13:11;14.60;99.90
54642;DHT22;40536;53.194;5.728;2023-08-01T04:15:37;14.70;99.90
54642;DHT22;40536;53.194;5.728;2023-08-01T04:18:03;14.80;99.90
54642;DHT22;40536;53.194;5.728;2023-08-01T04:20:28;14.80;99.90
54642;DHT22;40536;53.194;5.728;2023-08-01T04:22:54;14.80;99.90
54642;DHT22;40536;53.194;5.728;2023-08-01T04:25:20;14.80;99.90
54642;DHT22;40536;53.194;5.728;2023-08-01T04:27:45;14.80;99.90
54642;DHT22;40536;53.194;5.728;2023-08-01T04:30:11;14.80;99.90
54642;DHT22;40536;53.194;5.728;2023-08-01T04:32:37;14.70;99.90
54642;DHT22;40536;53.194;5.728;2023-08-01T04:35:03;14.70;99.90
54642;DHT22;40536;53.194;5.728;2023-08-01T04:37:29;14.70;99.90
54642;DHT22;40536;53.194;5.728;2023-08-01T04:39:54;14.70;99.90
54642;DHT22;40536;53.194;5.728;2023-08-01T04:42:20;14.70;99.90
54642;DHT22;40536;53.194;5.728;2023-08-01T04:44:45;14.70;99.90
54642;DHT22;40536;53.194;5.728;2023-08-01T04:47:11;14.70;99.90
54642;DHT22;40536;53.194;5.728;2023-08-01T04:49:37;14.70;99.90
54642;DHT22;40536;53.194;5.728;2023-08-01T04:52:03;14.80;99.90
54642;DHT22;40536;53.194;5.728;2023-08-01T04:54:28;14.80;99.90
54642;DHT22;40536;53.194;5.728;2023-08-01T04:56:54;14.80;99.90
54642;DHT22;40536;53.194;5.728;2023-08-01T04:59:19;14.90;99.90
54642;DHT22;40536;53.194;5.728;2023-08-01T05:01:45;14.90;99.90
54642;DHT22;40536;53.194;5.728;2023-08-01T05:04:11;15.00;99.90
54642;DHT22;40536;53.194;5.728;2023-08-01T05:06:36;15.00;99.90
54642;DHT22;40536;53.194;5.728;2023-08-01T05:09:02;15.00;99.90
54642;DHT22;40536;53.194;5.728;2023-08-01T05:11:28;14.90;99.90
54642;DHT22;40536;53.194;5.728;2023-08-01T05:13:54;14.90;99.90
54642;DHT22;40536;53.194;5.728;2023-08-01T05:16:20;14.80;99.90
54642;DHT22;40536;53.194;5.728;2023-08-01T05:18:46;14.70;99.90
54642;DHT22;40536;53.194;5.728;2023-08-01T05:21:11;14.60;99.90
54642;DHT22;40536;53.194;5.728;2023-08-01T05:23:37;14.50;99.90
54642;DHT22;40536;53.194;5.728;2023-08-01T05:26:02;14.50;99.90
54642;DHT22;40536;53.194;5.728;2023-08-01T05:28:28;14.40;99.90
54642;DHT22;40536;53.194;5.728;2023-08-01T05:30:54;14.40;99.90
54642;DHT22;40536;53.194;5.728;2023-08-01T05:33:19;14.40;99.90
54642;DHT22;40536;53.194;5.728;2023-08-01T05:35:45;14.50;99.90
54642;DHT22;40536;53.194;5.728;2023-08-01T05:38:10;14.50;99.90
54642;DHT22;40536;53.194;5.728;2023-08-01T05:40:36;14.50;99.90
54642;DHT22;40536;53.194;5.728;2023-08-01T05:43:02;14.60;99.90
54642;DHT22;40536;53.194;5.728;2023-08-01T05:45:29;14.60;99.90
54642;DHT22;40536;53.194;5.728;2023-08-01T05:47:55;14.70;99.90
54642;DHT22;40536;53.194;5.728;2023-08-01T05:50:20;14.70;99.90
54642;DHT22;40536;53.194;5.728;2023-08-01T05:52:46;14.70;99.90
54642;DHT22;40536;53.194;5.728;2023-08-01T05:55:11;14.80;99.90
54642;DHT22;40536;53.194;5.728;2023-08-01T05:57:37;14.90;99.90
54642;DHT22;40536;53.194;5.728;2023-08-01T06:00:03;15.00;99.90
54642;DHT22;40536;53.194;5.728;2023-08-01T06:02:29;15.10;99.90
54642;DHT22;40536;53.194;5.728;2023-08-01T06:04:54;15.20;99.90
54642;DHT22;40536;53.194;5.728;2023-08-01T06:07:20;15.20;99.90
54642;DHT22;40536;53.194;5.728;2023-08-01T06:09:49;15.30;99.90
54642;DHT22;40536;53.194;5.728;2023-08-01T06:12:17;15.30;99.90
54642;DHT22;40536;53.194;5.728;2023-08-01T06:14:44;15.30;99.90
54642;DHT22;40536;53.194;5.728;2023-08-01T06:17:10;15.20;99.90
54642;DHT22;40536;53.194;5.728;2023-08-01T06:19:36;15.20;99.90
54642;DHT22;40536;53.194;5.728;2023-08-01T06:22:01;15.20;99.90
54642;DHT22;40536;53.194;5.728;2023-08-01T06:24:27;15.10;99.90
54642;DHT22;40536;53.194;5.728;2023-08-01T06:26:53;15.20;99.90
54642;DHT22;40536;53.194;5.728;2023-08-01T06:29:18;15.20;99.90
54642;DHT22;40536;53.194;5.728;2023-08-01T06:31:44;15.20;99.90
54642;DHT22;40536;53.194;5.728;2023-08-01T06:34:09;15.10;99.90
54642;DHT22;40536;53.194;5.728;2023-08-01T06:36:35;15.20;99.90
54642;DHT22;40536;53.194;5.728;2023-08-01T06:39:01;15.10;99.90
54642;DHT22;40536;53.194;5.728;2023-08-01T06:41:26;15.20;99.90
54642;DHT22;40536;53.194;5.728;2023-08-01T06:43:52;15.20;99.90
54642;DHT22;40536;53.194;5.728;2023-08-01T06:46:18;15.20;99.90
54642;DHT22;40536;53.194;5.728;2023-08-01T06:48:43;15.30;99.90
54642;DHT22;40536;53.194;5.728;2023-08-01T06:51:09;15.30;99.90
54642;DHT22;40536;53.194;5.728;2023-08-01T06:53:34;15.30;99.90
54642;DHT22;40536;53.194;5.728;2023-08-01T06:56:00;15.40;99.90
54642;DHT22;40536;53.194;5.728;2023-08-01T06:58:26;15.50;99.90
54642;DHT22;40536;53.194;5.728;2023-08-01T07:00:51;15.60;99.90
54642;DHT22;40536;53.194;5.728;2023-08-01T07:03:17;15.80;99.90
54642;DHT22;40536;53.194;5.728;2023-08-01T07:05:42;16.00;99.90
54642;DHT22;40536;53.194;5.728;2023-08-01T07:08:08;16.20;99.90
54642;DHT22;40536;53.194;5.728;2023-08-01T07:10:37;16.30;99.90
54642;DHT22;40536;53.194;5.728;2023-08-01T07:13:03;16.30;99.90
54642;DHT22;40536;53.194;5.728;2023-08-01T07:15:33;16.40;99.90
54642;DHT22;40536;53.194;5.728;2023-08-01T07:17:59;16.30;99.90
54642;DHT22;40536;53.194;5.728;2023-08-01T07:20:25;16.20;99.90
54642;DHT22;40536;53.194;5.728;2023-08-01T07:22:50;16.00;99.90
54642;DHT22;40536;53.194;5.728;2023-08-01T07:25:16;15.80;99.90
54642;DHT22;40536;53.194;5.728;2023-08-01T07:27:42;15.60;99.90
54642;DHT22;40536;53.194;5.728;2023-08-01T07:30:08;15.50;99.90
54642;DHT22;40536;53.194;5.728;2023-08-01T07:32:35;15.40;99.90
54642;DHT22;40536;53.194;5.728;2023-08-01T07:35:04;15.30;99.90
54642;DHT22;40536;53.194;5.728;2023-08-01T07:37:29;15.30;99.90
54642;DHT22;40536;53.194;5.728;2023-08-01T07:39:56;15.20;99.90
54642;DHT22;40536;53.194;5.728;2023-08-01T07:42:22;15.20;99.90
54642;DHT22;40536;53.194;5.728;2023-08-01T07:44:48;15.20;99.90
54642;DHT22;40536;53.194;5.728;2023-08-01T07:47:13;15.20;99.90
54642;DHT22;40536;53.194;5.728;2023-08-01T07:49:39;15.20;99.90
54642;DHT22;40536;53.194;5.728;2023-08-01T07:52:05;15.40;99.90
54642;DHT22;40536;53.194;5.728;2023-08-01T07:54:30;15.70;99.90
54642;DHT22;40536;53.194;5.728;2023-08-01T07:56:56;16.00;99.90
54642;DHT22;40536;53.194;5.728;2023-08-01T07:59:22;16.10;99.90
54642;DHT22;40536;53.194;5.728;2023-08-01T08:01:47;16.10;99.90
54642;DHT22;40536;53.194;5.728;2023-08-01T08:04:13;16.00;99.90
54642;DHT22;40536;53.194;5.728;2023-08-01T08:06:40;16.40;99.90
54642;DHT22;40536;53.194;5.728;2023-08-01T08:09:07;17.30;99.90
54642;DHT22;40536;53.194;5.728;2023-08-01T08:11:32;18.40;99.90
54642;DHT22;40536;53.194;5.728;2023-08-01T08:13:59;19.40;99.90
54642;DHT22;40536;53.194;5.728;2023-08-01T08:16:25;19.30;99.90
54642;DHT22;40536;53.194;5.728;2023-08-01T08:18:51;18.80;99.90
54642;DHT22;40536;53.194;5.728;2023-08-01T08:21:16;18.20;99.90
54642;DHT22;40536;53.194;5.728;2023-08-01T08:23:42;17.90;99.90
54642;DHT22;40536;53.194;5.728;2023-08-01T08:26:08;18.00;99.90
54642;DHT22;40536;53.194;5.728;2023-08-01T08:28:34;18.30;99.90
54642;DHT22;40536;53.194;5.728;2023-08-01T08:31:00;18.90;99.90
54642;DHT22;40536;53.194;5.728;2023-08-01T08:33:27;19.10;99.90
54642;DHT22;40536;53.194;5.728;2023-08-01T08:35:53;19.20;99.90
54642;DHT22;40536;53.194;5.728;2023-08-01T08:38:18;19.20;99.90
54642;DHT22;40536;53.194;5.728;2023-08-01T08:41:09;19.20;99.90
54642;DHT22;40536;53.194;5.728;2023-08-01T08:43:35;19.60;99.90
54642;DHT22;40536;53.194;5.728;2023-08-01T08:46:04;19.40;99.90
54642;DHT22;40536;53.194;5.728;2023-08-01T08:48:31;19.20;99.90
54642;DHT22;40536;53.194;5.728;2023-08-01T08:50:58;19.40;99.90
54642;DHT22;40536;53.194;5.728;2023-08-01T08:53:25;20.30;99.90
54642;DHT22;40536;53.194;5.728;2023-08-01T08:55:51;20.80;99.90
54642;DHT22;40536;53.194;5.728;2023-08-01T08:58:17;20.70;99.90
54642;DHT22;40536;53.194;5.728;2023-08-01T09:00:44;20.10;99.90
54642;DHT22;40536;53.194;5.728;2023-08-01T09:03:09;19.80;99.90
54642;DHT22;40536;53.194;5.728;2023-08-01T09:05:44;19.60;99.90
54642;DHT22;40536;53.194;5.728;2023-08-01T09:08:16;19.20;99.90
54642;DHT22;40536;53.194;5.728;2023-08-01T09:10:43;18.70;99.90
54642;DHT22;40536;53.194;5.728;2023-08-01T09:13:09;18.40;99.90
54642;DHT22;40536;53.194;5.728;2023-08-01T09:15:35;18.50;99.90
54642;DHT22;40536;53.194;5.728;2023-08-01T09:18:06;18.80;99.90
54642;DHT22;40536;53.194;5.728;2023-08-01T09:20:45;19.10;99.90
54642;DHT22;40536;53.194;5.728;2023-08-01T09:23:10;19.20;99.90
54642;DHT22;40536;53.194;5.728;2023-08-01T09:25:36;19.00;99.90
54642;DHT22;40536;53.194;5.728;2023-08-01T09:28:02;19.00;99.90
54642;DHT22;40536;53.194;5.728;2023-08-01T09:30:31;19.10;99.90
54642;DHT22;40536;53.194;5.728;2023-08-01T09:32:57;19.40;99.90
54642;DHT22;40536;53.194;5.728;2023-08-01T09:35:23;19.70;99.90
54642;DHT22;40536;53.194;5.728;2023-08-01T09:37:49;19.70;99.90
54642;DHT22;40536;53.194;5.728;2023-08-01T09:40:15;19.90;99.90
54642;DHT22;40536;53.194;5.728;2023-08-01T09:42:42;20.30;99.90
54642;DHT22;40536;53.194;5.728;2023-08-01T09:45:15;20.20;99.90
54642;DHT22;40536;53.194;5.728;2023-08-01T09:47:42;20.50;99.90
54642;DHT22;40536;53.194;5.728;2023-08-01T09:50:13;21.40;99.90
54642;DHT22;40536;53.194;5.728;2023-08-01T09:52:45;21.80;99.90
54642;DHT22;40536;53.194;5.728;2023-08-01T09:55:33;21.70;99.90
54642;DHT22;40536;53.194;5.728;2023-08-01T09:57:59;21.40;99.90
54642;DHT22;40536;53.194;5.728;2023-08-01T10:00:29;22.50;99.90
54642;DHT22;40536;53.194;5.728;2023-08-01T10:02:59;23.50;99.90
54642;DHT22;40536;53.194;5.728;2023-08-01T10:05:32;24.50;99.90
54642;DHT22;40536;53.194;5.728;2023-08-01T10:08:02;24.30;99.90
54642;DHT22;40536;53.194;5.728;2023-08-01T10:10:30;24.00;99.90
54642;DHT22;40536;53.194;5.728;2023-08-01T10:13:00;23.40;99.90
54642;DHT22;40536;53.194;5.728;2023-08-01T10:15:27;22.60;99.90
54642;DHT22;40536;53.194;5.728;2023-08-01T10:17:53;22.90;99.90
54642;DHT22;40536;53.194;5.728;2023-08-01T10:20:20;23.60;99.90
54642;DHT22;40536;53.194;5.728;2023-08-01T10:22:48;23.40;99.90
54642;DHT22;40536;53.194;5.728;2023-08-01T10:25:16;22.80;99.90
54642;DHT22;40536;53.194;5.728;2023-08-01T10:27:42;23.10;99.90
54642;DHT22;40536;53.194;5.728;2023-08-01T10:30:08;23.60;99.90
54642;DHT22;40536;53.194;5.728;2023-08-01T10:32:39;23.80;99.90
54642;DHT22;40536;53.194;5.728;2023-08-01T10:35:05;23.20;99.90
54642;DHT22;40536;53.194;5.728;2023-08-01T10:37:49;22.70;99.90
54642;DHT22;40536;53.194;5.728;2023-08-01T10:40:15;23.10;99.90
54642;DHT22;40536;53.194;5.728;2023-08-01T10:42:42;23.80;99.90
54642;DHT22;40536;53.194;5.728;2023-08-01T10:45:20;23.90;99.90
54642;DHT22;40536;53.194;5.728;2023-08-01T10:47:48;24.00;99.90
54642;DHT22;40536;53.194;5.728;2023-08-01T10:50:14;23.50;99.90
54642;DHT22;40536;53.194;5.728;2023-08-01T10:52:41;23.00;99.90
54642;DHT22;40536;53.194;5.728;2023-08-01T10:55:07;22.70;99.90
54642;DHT22;40536;53.194;5.728;2023-08-01T10:57:35;22.30;99.90
54642;DHT22;40536;53.194;5.728;2023-08-01T11:00:03;21.90;99.90
54642;DHT22;40536;53.194;5.728;2023-08-01T11:02:30;21.70;99.90
54642;DHT22;40536;53.194;5.728;2023-08-01T11:05:00;21.30;99.90
54642;DHT22;40536;53.194;5.728;2023-08-01T11:07:26;21.10;99.90
54642;DHT22;40536;53.194;5.728;2023-08-01T11:10:13;21.70;99.90
54642;DHT22;40536;53.194;5.728;2023-08-01T11:12:41;22.60;99.90
54642;DHT22;40536;53.194;5.728;2023-08-01T11:15:09;22.90;99.90
54642;DHT22;40536;53.194;5.728;2023-08-01T11:17:42;23.00;99.90
54642;DHT22;40536;53.194;5.728;2023-08-01T11:20:12;22.60;99.90
54642;DHT22;40536;53.194;5.728;2023-08-01T11:25:37;22.30;99.90
54642;DHT22;40536;53.194;5.728;2023-08-01T11:28:05;23.50;99.90
54642;DHT22;40536;53.194;5.728;2023-08-01T11:30:32;24.10;99.90
54642;DHT22;40536;53.194;5.728;2023-08-01T11:33:00;24.50;99.90
54642;DHT22;40536;53.194;5.728;2023-08-01T11:35:28;24.60;99.90
54642;DHT22;40536;53.194;5.728;2023-08-01T11:37:54;24.70;99.90
54642;DHT22;40536;53.194;5.728;2023-08-01T11:40:20;25.20;99.90
54642;DHT22;40536;53.194;5.728;2023-08-01T11:42:50;25.40;99.90
54642;DHT22;40536;53.194;5.728;2023-08-01T11:45:19;25.20;99.90
54642;DHT22;40536;53.194;5.728;2023-08-01T11:47:46;24.30;99.90
54642;DHT22;40536;53.194;5.728;2023-08-01T11:50:12;23.30;99.90
54642;DHT22;40536;53.194;5.728;2023-08-01T11:52:38;22.60;99.90
54642;DHT22;40536;53.194;5.728;2023-08-01T11:55:04;22.00;99.90
54642;DHT22;40536;53.194;5.728;2023-08-01T11:57:30;22.10;99.90
54642;DHT22;40536;53.194;5.728;2023-08-01T11:59:56;22.60;99.90
54642;DHT22;40536;53.194;5.728;2023-08-01T12:02:26;22.60;99.90
54642;DHT22;40536;53.194;5.728;2023-08-01T12:04:53;22.00;99.90
54642;DHT22;40536;53.194;5.728;2023-08-01T12:07:20;21.60;99.90
54642;DHT22;40536;53.194;5.728;2023-08-01T12:10:01;21.30;99.90
54642;DHT22;40536;53.194;5.728;2023-08-01T12:12:28;21.20;99.90
54642;DHT22;40536;53.194;5.728;2023-08-01T12:14:55;22.00;99.90
54642;DHT22;40536;53.194;5.728;2023-08-01T12:17:22;22.10;99.90
54642;DHT22;40536;53.194;5.728;2023-08-01T12:19:47;21.60;99.90
54642;DHT22;40536;53.194;5.728;2023-08-01T12:22:13;21.00;99.90
54642;DHT22;40536;53.194;5.728;2023-08-01T12:24:40;20.60;99.90
54642;DHT22;40536;53.194;5.728;2023-08-01T12:27:09;20.50;99.90
54642;DHT22;40536;53.194;5.728;2023-08-01T12:29:35;20.80;99.90
54642;DHT22;40536;53.194;5.728;2023-08-01T12:32:02;21.00;99.90
54642;DHT22;40536;53.194;5.728;2023-08-01T12:34:28;20.80;99.90
54642;DHT22;40536;53.194;5.728;2023-08-01T12:36:54;20.60;99.90
54642;DHT22;40536;53.194;5.728;2023-08-01T12:39:19;20.50;99.90
54642;DHT22;40536;53.194;5.728;2023-08-01T12:41:45;21.20;99.90
54642;DHT22;40536;53.194;5.728;2023-08-01T12:44:10;21.50;99.90
54642;DHT22;40536;53.194;5.728;2023-08-01T12:46:37;21.00;99.90
54642;DHT22;40536;53.194;5.728;2023-08-01T12:49:02;20.90;99.90
54642;DHT22;40536;53.194;5.728;2023-08-01T12:51:28;21.20;99.90
54642;DHT22;40536;53.194;5.728;2023-08-01T12:53:54;21.60;99.90
54642;DHT22;40536;53.194;5.728;2023-08-01T12:56:19;21.50;99.90
54642;DHT22;40536;53.194;5.728;2023-08-01T12:58:45;21.00;99.90
54642;DHT22;40536;53.194;5.728;2023-08-01T13:01:10;20.50;99.90
54642;DHT22;40536;53.194;5.728;2023-08-01T13:03:36;20.60;99.90
54642;DHT22;40536;53.194;5.728;2023-08-01T13:06:02;20.80;99.90
54642;DHT22;40536;53.194;5.728;2023-08-01T13:08:28;21.00;99.90
54642;DHT22;40536;53.194;5.728;2023-08-01T13:10:54;20.70;99.90
54642;DHT22;40536;53.194;5.728;2023-08-01T13:13:20;20.60;99.90
54642;DHT22;40536;53.194;5.728;2023-08-01T13:15:46;21.00;99.90
54642;DHT22;40536;53.194;5.728;2023-08-01T13:18:13;21.40;99.90
54642;DHT22;40536;53.194;5.728;2023-08-01T13:20:39;21.70;99.90
54642;DHT22;40536;53.194;5.728;2023-08-01T13:23:05;21.70;99.90
54642;DHT22;40536;53.194;5.728;2023-08-01T13:25:30;21.20;99.90
54642;DHT22;40536;53.194;5.728;2023-08-01T13:27:56;21.00;99.90
54642;DHT22;40536;53.194;5.728;2023-08-01T13:30:22;20.90;99.90
54642;DHT22;40536;53.194;5.728;2023-08-01T13:32:47;21.00;99.90
54642;DHT22;40536;53.194;5.728;2023-08-01T13:35:14;21.00;99.90
54642;DHT22;40536;53.194;5.728;2023-08-01T13:37:39;20.70;99.90
54642;DHT22;40536;53.194;5.728;2023-08-01T13:40:05;20.20;99.90
54642;DHT22;40536;53.194;5.728;2023-08-01T13:42:31;19.80;99.90
54642;DHT22;40536;53.194;5.728;2023-08-01T13:44:57;19.40;99.90
54642;DHT22;40536;53.194;5.728;2023-08-01T13:47:23;19.20;99.90
54642;DHT22;40536;53.194;5.728;2023-08-01T13:49:48;19.30;99.90
54642;DHT22;40536;53.194;5.728;2023-08-01T13:52:14;19.20;99.90
54642;DHT22;40536;53.194;5.728;2023-08-01T13:54:40;19.20;99.90
54642;DHT22;40536;53.194;5.728;2023-08-01T13:57:06;19.40;99.90
54642;DHT22;40536;53.194;5.728;2023-08-01T13:59:31;19.80;99.90
54642;DHT22;40536;53.194;5.728;2023-08-01T14:01:57;20.20;99.90
54642;DHT22;40536;53.194;5.728;2023-08-01T14:04:23;20.10;99.90
54642;DHT22;40536;53.194;5.728;2023-08-01T14:06:48;20.00;99.90
54642;DHT22;40536;53.194;5.728;2023-08-01T14:09:14;20.20;99.90
54642;DHT22;40536;53.194;5.728;2023-08-01T14:11:40;20.10;99.90
54642;DHT22;40536;53.194;5.728;2023-08-01T14:14:05;20.10;99.90
54642;DHT22;40536;53.194;5.728;2023-08-01T14:16:31;19.90;99.90
54642;DHT22;40536;53.194;5.728;2023-08-01T14:18:58;19.80;99.90
54642;DHT22;40536;53.194;5.728;2023-08-01T14:21:24;19.90;99.90
54642;DHT22;40536;53.194;5.728;2023-08-01T14:23:50;20.10;99.90
54642;DHT22;40536;53.194;5.728;2023-08-01T14:26:15;20.20;99.90
54642;DHT22;40536;53.194;5.728;2023-08-01T14:28:41;20.40;99.90
54642;DHT22;40536;53.194;5.728;2023-08-01T14:31:07;20.50;99.90
54642;DHT22;40536;53.194;5.728;2023-08-01T14:33:33;20.40;99.90
54642;DHT22;40536;53.194;5.728;2023-08-01T14:35:59;20.40;99.90
54642;DHT22;40536;53.194;5.728;2023-08-01T14:38:25;20.20;99.90
54642;DHT22;40536;53.194;5.728;2023-08-01T14:40:52;20.00;99.90
54642;DHT22;40536;53.194;5.728;2023-08-01T14:43:17;20.00;99.90
54642;DHT22;40536;53.194;5.728;2023-08-01T14:45:43;20.20;99.90
54642;DHT22;40536;53.194;5.728;2023-08-01T14:48:09;20.40;99.90
54642;DHT22;40536;53.194;5.728;2023-08-01T14:50:35;20.60;99.90
54642;DHT22;40536;53.194;5.728;2023-08-01T14:53:01;20.70;99.90
54642;DHT22;40536;53.194;5.728;2023-08-01T14:55:31;20.60;99.90
54642;DHT22;40536;53.194;5.728;2023-08-01T14:57:57;20.60;99.90
54642;DHT22;40536;53.194;5.728;2023-08-01T15:00:22;20.30;99.90
54642;DHT22;40536;53.194;5.728;2023-08-01T15:02:48;20.20;99.90
54642;DHT22;40536;53.194;5.728;2023-08-01T15:05:14;20.20;99.90
54642;DHT22;40536;53.194;5.728;2023-08-01T15:07:40;20.20;99.90
54642;DHT22;40536;53.194;5.728;2023-08-01T15:10:08;20.10;99.90
54642;DHT22;40536;53.194;5.728;2023-08-01T15:12:34;20.10;99.90
54642;DHT22;40536;53.194;5.728;2023-08-01T15:14:59;20.10;99.90
54642;DHT22;40536;53.194;5.728;2023-08-01T15:17:25;20.40;99.90
54642;DHT22;40536;53.194;5.728;2023-08-01T15:19:51;20.50;99.90
54642;DHT22;40536;53.194;5.728;2023-08-01T15:22:18;20.40;99.90
54642;DHT22;40536;53.194;5.728;2023-08-01T15:24:45;20.50;99.90
54642;DHT22;40536;53.194;5.728;2023-08-01T15:27:11;20.40;99.90